ティフアナ の空港の天気 - METARとTAF

ヘネラル・アベラルド・L・ロドリゲス国際空港 ( MMTJ / TIJ ) - メキシコ バハ・カリフォルニア州ティフアナ
飛行場実況気象(Metar)
観測時間12/01 14:42 PST (12/01 22:42 UTC)
風向・風速北西 5m/s
視程10km以上
天気現象
なし
気温23℃
湿度16%
気圧1017hPa
METARMMTJ 012242Z 31010KT 7SM SKC 23/M04 A3002 RMK HZY
過去の天気等 Google飛行場航空写真 Wunderground天気予報

過去48時間のMETAR

飛行場予報(TAF)
発表時間: 12/01 14:39 PST (12/01 22:39 UTC)
予報対象時間: 1日16時 PST ~ 2日22時 PST
風向・風速北西 4m/s
視程10km以上
なし
1日20時 PST から
風向・風速東 3m/s
視程10km以上
天気現象煙霧
なし
2日3時 PST ~ 2日7時 PST に一時的に
視程6440m
天気現象煙霧
2日8時 PST から
風向・風速南 3m/s
視程10km以上
天気現象煙霧
全天の8割程度の雲 雲底高度 7620m
2日10時 PST ~ 2日11時 PST に徐々に
風向・風速西 4m/s
2日18時 PST から
風向・風速東 4m/s
視程10km以上
天気現象煙霧
全天の8割程度の雲 雲底高度 6100m
TAF MMTJ 012239Z 0200/0306 32008KT P6SM SKC TN08/0213Z TX25/0220Z
FM020400 08005KT 6SM HZ SKC
TEMPO 0211/0215 4SM HZ
FM021600 18005KT 6SM HZ BKN250
BECMG 0218/0219 26008KT
FM030200 08008KT 6SM HZ BKN200